sensor_id;sensor_type;location;lat;lon;timestamp;pressure;altitude;pressure_sealevel;temperature;humidity
64967;BME280;51710;38.732;-121.358;2023-03-22T00:01:43;98962.94;;;16.00;56.53
64967;BME280;51710;38.732;-121.358;2023-03-22T00:04:10;98961.44;;;15.92;56.31
64967;BME280;51710;38.732;-121.358;2023-03-22T00:06:37;98979.28;;;15.87;56.03
64967;BME280;51710;38.732;-121.358;2023-03-22T00:09:03;98967.84;;;15.79;56.30
64967;BME280;51710;38.732;-121.358;2023-03-22T00:11:29;98969.97;;;15.77;56.85
64967;BME280;51710;38.732;-121.358;2023-03-22T00:13:56;98996.47;;;15.74;57.16
64967;BME280;51710;38.732;-121.358;2023-03-22T00:16:23;99011.38;;;15.70;56.86
64967;BME280;51710;38.732;-121.358;2023-03-22T00:18:50;99000.53;;;15.65;56.99
64967;BME280;51710;38.732;-121.358;2023-03-22T00:21:16;99008.22;;;15.61;56.99
64967;BME280;51710;38.732;-121.358;2023-03-22T00:23:44;99026.44;;;15.59;56.87
64967;BME280;51710;38.732;-121.358;2023-03-22T00:26:11;99013.72;;;15.55;57.13
64967;BME280;51710;38.732;-121.358;2023-03-22T00:28:38;99034.81;;;15.51;57.09
64967;BME280;51710;38.732;-121.358;2023-03-22T00:31:06;99041.31;;;15.44;57.30
64967;BME280;51710;38.732;-121.358;2023-03-22T00:33:32;99059.81;;;15.34;59.38
64967;BME280;51710;38.732;-121.358;2023-03-22T00:36:07;99053.53;;;15.10;60.20
64967;BME280;51710;38.732;-121.358;2023-03-22T00:38:33;99056.69;;;14.89;60.95
64967;BME280;51710;38.732;-121.358;2023-03-22T00:41:19;99067.00;;;14.74;60.97
64967;BME280;51710;38.732;-121.358;2023-03-22T00:43:46;99077.22;;;14.65;61.50
64967;BME280;51710;38.732;-121.358;2023-03-22T00:46:14;99071.94;;;14.59;61.49
64967;BME280;51710;38.732;-121.358;2023-03-22T00:48:41;99107.03;;;14.51;62.62
64967;BME280;51710;38.732;-121.358;2023-03-22T00:51:08;99107.59;;;14.35;64.91
64967;BME280;51710;38.732;-121.358;2023-03-22T00:53:35;99128.06;;;14.05;65.56
64967;BME280;51710;38.732;-121.358;2023-03-22T00:56:02;99136.28;;;13.79;67.03
64967;BME280;51710;38.732;-121.358;2023-03-22T00:58:28;99130.22;;;13.58;69.01
64967;BME280;51710;38.732;-121.358;2023-03-22T01:00:55;99131.00;;;13.34;70.44
64967;BME280;51710;38.732;-121.358;2023-03-22T01:03:21;99123.28;;;13.13;71.73
64967;BME280;51710;38.732;-121.358;2023-03-22T01:05:48;99132.56;;;12.98;72.71
64967;BME280;51710;38.732;-121.358;2023-03-22T01:08:14;99139.81;;;12.84;73.26
64967;BME280;51710;38.732;-121.358;2023-03-22T01:10:42;99125.28;;;12.74;74.20
64967;BME280;51710;38.732;-121.358;2023-03-22T01:13:12;99124.25;;;12.68;73.45
64967;BME280;51710;38.732;-121.358;2023-03-22T01:15:38;99119.75;;;12.62;73.50
64967;BME280;51710;38.732;-121.358;2023-03-22T01:18:06;99127.16;;;12.60;73.64
64967;BME280;51710;38.732;-121.358;2023-03-22T01:20:33;99131.88;;;12.58;73.50
64967;BME280;51710;38.732;-121.358;2023-03-22T01:23:00;99128.38;;;12.58;73.85
64967;BME280;51710;38.732;-121.358;2023-03-22T01:25:26;99136.19;;;12.59;73.56
64967;BME280;51710;38.732;-121.358;2023-03-22T01:27:52;99146.47;;;12.62;73.43
64967;BME280;51710;38.732;-121.358;2023-03-22T01:30:18;99165.56;;;12.66;73.54
64967;BME280;51710;38.732;-121.358;2023-03-22T01:32:45;99160.63;;;12.69;73.21
64967;BME280;51710;38.732;-121.358;2023-03-22T01:35:11;99160.41;;;12.71;73.47
64967;BME280;51710;38.732;-121.358;2023-03-22T01:37:37;99168.00;;;12.74;73.12
64967;BME280;51710;38.732;-121.358;2023-03-22T01:40:04;99197.16;;;12.75;73.14
64967;BME280;51710;38.732;-121.358;2023-03-22T01:42:31;99206.03;;;12.76;73.74
64967;BME280;51710;38.732;-121.358;2023-03-22T01:47:40;99217.72;;;12.68;74.63
64967;BME280;51710;38.732;-121.358;2023-03-22T01:50:09;99227.38;;;12.63;74.86
64967;BME280;51710;38.732;-121.358;2023-03-22T01:52:35;99219.59;;;12.61;74.99
64967;BME280;51710;38.732;-121.358;2023-03-22T01:55:03;99229.03;;;12.57;74.47
64967;BME280;51710;38.732;-121.358;2023-03-22T01:57:32;99222.88;;;12.57;74.79
64967;BME280;51710;38.732;-121.358;2023-03-22T02:00:07;99226.38;;;12.57;74.72
64967;BME280;51710;38.732;-121.358;2023-03-22T02:02:46;99240.53;;;12.58;74.00
64967;BME280;51710;38.732;-121.358;2023-03-22T02:05:13;99247.13;;;12.55;74.30
64967;BME280;51710;38.732;-121.358;2023-03-22T02:07:41;99263.97;;;12.49;74.81
64967;BME280;51710;38.732;-121.358;2023-03-22T02:10:18;99267.66;;;12.41;75.62
64967;BME280;51710;38.732;-121.358;2023-03-22T02:16:04;99258.19;;;12.19;76.50
64967;BME280;51710;38.732;-121.358;2023-03-22T02:19:06;99265.56;;;12.11;76.71
64967;BME280;51710;38.732;-121.358;2023-03-22T02:25:15;99296.72;;;11.91;76.78
64967;BME280;51710;38.732;-121.358;2023-03-22T02:28:13;99286.84;;;11.85;77.49
64967;BME280;51710;38.732;-121.358;2023-03-22T02:34:04;99316.97;;;11.79;76.99
64967;BME280;51710;38.732;-121.358;2023-03-22T02:36:53;99321.88;;;11.75;76.79
64967;BME280;51710;38.732;-121.358;2023-03-22T02:58:45;99383.53;;;11.59;76.99
64967;BME280;51710;38.732;-121.358;2023-03-22T03:01:26;99378.13;;;11.46;77.26
64967;BME280;51710;38.732;-121.358;2023-03-22T03:04:00;99379.09;;;11.38;77.55
64967;BME280;51710;38.732;-121.358;2023-03-22T03:06:32;99399.53;;;11.31;77.20
64967;BME280;51710;38.732;-121.358;2023-03-22T03:09:03;99409.97;;;11.26;76.81
64967;BME280;51710;38.732;-121.358;2023-03-22T03:11:30;99413.22;;;11.22;77.91
64967;BME280;51710;38.732;-121.358;2023-03-22T03:13:56;99427.94;;;11.18;77.62
64967;BME280;51710;38.732;-121.358;2023-03-22T03:16:26;99432.47;;;11.17;77.71
64967;BME280;51710;38.732;-121.358;2023-03-22T03:26:45;99462.34;;;11.13;77.12
64967;BME280;51710;38.732;-121.358;2023-03-22T03:31:55;99469.31;;;11.14;77.56
64967;BME280;51710;38.732;-121.358;2023-03-22T03:34:37;99476.28;;;11.15;77.27
64967;BME280;51710;38.732;-121.358;2023-03-22T03:37:33;99496.78;;;11.14;77.84
64967;BME280;51710;38.732;-121.358;2023-03-22T03:42:37;99513.78;;;11.13;77.16
64967;BME280;51710;38.732;-121.358;2023-03-22T03:45:06;99504.13;;;11.12;77.00
64967;BME280;51710;38.732;-121.358;2023-03-22T03:47:33;99516.84;;;11.10;77.50
64967;BME280;51710;38.732;-121.358;2023-03-22T03:50:02;99529.88;;;11.05;78.31
64967;BME280;51710;38.732;-121.358;2023-03-22T03:52:29;99528.19;;;10.98;78.74
64967;BME280;51710;38.732;-121.358;2023-03-22T03:54:56;99551.44;;;10.89;78.98
64967;BME280;51710;38.732;-121.358;2023-03-22T03:57:22;99551.00;;;10.86;79.26
64967;BME280;51710;38.732;-121.358;2023-03-22T03:59:49;99552.13;;;10.77;80.19
64967;BME280;51710;38.732;-121.358;2023-03-22T04:02:15;99549.09;;;10.65;80.75
64967;BME280;51710;38.732;-121.358;2023-03-22T04:04:41;99550.59;;;10.53;81.06
64967;BME280;51710;38.732;-121.358;2023-03-22T04:07:08;99553.16;;;10.47;81.15
64967;BME280;51710;38.732;-121.358;2023-03-22T04:09:36;99561.91;;;10.41;82.01
64967;BME280;51710;38.732;-121.358;2023-03-22T04:12:03;99563.91;;;10.39;82.01
64967;BME280;51710;38.732;-121.358;2023-03-22T04:14:30;99573.72;;;10.38;82.39
64967;BME280;51710;38.732;-121.358;2023-03-22T04:16:56;99583.34;;;10.39;82.07
64967;BME280;51710;38.732;-121.358;2023-03-22T04:19:22;99584.38;;;10.38;82.73
64967;BME280;51710;38.732;-121.358;2023-03-22T04:21:48;99577.22;;;10.39;82.72
64967;BME280;51710;38.732;-121.358;2023-03-22T04:24:18;99601.00;;;10.40;82.71
64967;BME280;51710;38.732;-121.358;2023-03-22T04:26:46;99596.03;;;10.37;82.95
64967;BME280;51710;38.732;-121.358;2023-03-22T04:29:12;99596.38;;;10.34;82.92
64967;BME280;51710;38.732;-121.358;2023-03-22T04:31:39;99608.44;;;10.30;82.75
64967;BME280;51710;38.732;-121.358;2023-03-22T04:34:05;99614.47;;;10.24;83.32
64967;BME280;51710;38.732;-121.358;2023-03-22T04:36:33;99611.53;;;10.19;83.57
64967;BME280;51710;38.732;-121.358;2023-03-22T04:39:06;99624.19;;;10.17;83.22
64967;BME280;51710;38.732;-121.358;2023-03-22T04:41:34;99639.69;;;10.13;83.50
64967;BME280;51710;38.732;-121.358;2023-03-22T04:44:00;99640.88;;;10.11;83.66
64967;BME280;51710;38.732;-121.358;2023-03-22T04:46:30;99641.88;;;10.10;83.51
64967;BME280;51710;38.732;-121.358;2023-03-22T04:48:57;99653.53;;;10.09;83.34
64967;BME280;51710;38.732;-121.358;2023-03-22T04:51:24;99666.97;;;10.07;83.26
64967;BME280;51710;38.732;-121.358;2023-03-22T04:53:51;99677.63;;;10.07;83.44
64967;BME280;51710;38.732;-121.358;2023-03-22T04:56:18;99673.09;;;10.08;83.66
64967;BME280;51710;38.732;-121.358;2023-03-22T04:58:45;99676.78;;;10.07;83.71
64967;BME280;51710;38.732;-121.358;2023-03-22T05:01:14;99673.09;;;10.08;83.95
64967;BME280;51710;38.732;-121.358;2023-03-22T05:03:41;99680.28;;;10.07;83.62
64967;BME280;51710;38.732;-121.358;2023-03-22T05:06:15;99678.78;;;10.05;84.38
64967;BME280;51710;38.732;-121.358;2023-03-22T05:08:42;99680.81;;;10.03;84.27
64967;BME280;51710;38.732;-121.358;2023-03-22T05:11:16;99681.81;;;10.02;84.50
64967;BME280;51710;38.732;-121.358;2023-03-22T05:13:44;99698.44;;;10.04;84.55
64967;BME280;51710;38.732;-121.358;2023-03-22T05:16:10;99703.38;;;10.07;84.40
64967;BME280;51710;38.732;-121.358;2023-03-22T05:18:37;99706.72;;;10.09;84.54
64967;BME280;51710;38.732;-121.358;2023-03-22T05:21:11;99708.38;;;10.10;84.99
64967;BME280;51710;38.732;-121.358;2023-03-22T05:23:41;99711.88;;;10.10;84.73
64967;BME280;51710;38.732;-121.358;2023-03-22T05:26:08;99706.03;;;10.07;85.15
64967;BME280;51710;38.732;-121.358;2023-03-22T05:28:35;99717.03;;;10.04;85.34
64967;BME280;51710;38.732;-121.358;2023-03-22T05:31:03;99725.84;;;10.04;85.54
64967;BME280;51710;38.732;-121.358;2023-03-22T05:33:30;99717.38;;;10.01;85.93
64967;BME280;51710;38.732;-121.358;2023-03-22T05:35:56;99717.75;;;9.98;85.89
64967;BME280;51710;38.732;-121.358;2023-03-22T05:38:22;99730.56;;;9.94;86.35
64967;BME280;51710;38.732;-121.358;2023-03-22T05:40:49;99742.41;;;9.92;86.69
64967;BME280;51710;38.732;-121.358;2023-03-22T05:43:16;99751.38;;;9.91;86.52
64967;BME280;51710;38.732;-121.358;2023-03-22T05:45:42;99748.41;;;9.86;87.28
64967;BME280;51710;38.732;-121.358;2023-03-22T05:48:08;99755.44;;;9.79;87.42
64967;BME280;51710;38.732;-121.358;2023-03-22T05:50:34;99755.16;;;9.74;87.27
64967;BME280;51710;38.732;-121.358;2023-03-22T05:53:01;99755.31;;;9.72;87.72
64967;BME280;51710;38.732;-121.358;2023-03-22T05:55:28;99759.81;;;9.72;87.31
64967;BME280;51710;38.732;-121.358;2023-03-22T05:57:57;99759.81;;;9.72;87.37
64967;BME280;51710;38.732;-121.358;2023-03-22T06:00:24;99773.09;;;9.72;87.59
64967;BME280;51710;38.732;-121.358;2023-03-22T06:02:50;99778.22;;;9.73;87.82
64967;BME280;51710;38.732;-121.358;2023-03-22T06:05:21;99784.38;;;9.74;87.59
64967;BME280;51710;38.732;-121.358;2023-03-22T06:07:48;99790.38;;;9.76;87.67
64967;BME280;51710;38.732;-121.358;2023-03-22T06:10:15;99790.38;;;9.76;86.99
64967;BME280;51710;38.732;-121.358;2023-03-22T06:12:41;99790.38;;;9.76;87.21
64967;BME280;51710;38.732;-121.358;2023-03-22T06:15:08;99795.69;;;9.76;87.12
64967;BME280;51710;38.732;-121.358;2023-03-22T06:17:35;99804.31;;;9.78;87.10
64967;BME280;51710;38.732;-121.358;2023-03-22T06:20:03;99804.31;;;9.78;86.93
64967;BME280;51710;38.732;-121.358;2023-03-22T06:22:39;99814.59;;;9.81;87.02
64967;BME280;51710;38.732;-121.358;2023-03-22T06:25:07;99815.91;;;9.85;86.52
64967;BME280;51710;38.732;-121.358;2023-03-22T06:27:33;99813.88;;;9.87;86.70
64967;BME280;51710;38.732;-121.358;2023-03-22T06:30:00;99818.38;;;9.86;87.45
64967;BME280;51710;38.732;-121.358;2023-03-22T06:32:26;99815.56;;;9.88;87.32
64967;BME280;51710;38.732;-121.358;2023-03-22T06:34:53;99820.88;;;9.88;87.05
64967;BME280;51710;38.732;-121.358;2023-03-22T06:37:20;99814.72;;;9.87;87.29
64967;BME280;51710;38.732;-121.358;2023-03-22T06:39:46;99829.84;;;9.87;87.16
64967;BME280;51710;38.732;-121.358;2023-03-22T06:42:13;99828.19;;;9.86;87.03
64967;BME280;51710;38.732;-121.358;2023-03-22T06:44:39;99833.50;;;9.86;87.40
64967;BME280;51710;38.732;-121.358;2023-03-22T06:47:08;99831.88;;;9.85;87.43
64967;BME280;51710;38.732;-121.358;2023-03-22T06:49:35;99837.19;;;9.85;87.50
64967;BME280;51710;38.732;-121.358;2023-03-22T06:52:01;99838.81;;;9.86;87.44
64967;BME280;51710;38.732;-121.358;2023-03-22T06:54:28;99840.81;;;9.84;86.89
64967;BME280;51710;38.732;-121.358;2023-03-22T06:56:54;99847.63;;;9.86;87.53
64967;BME280;51710;38.732;-121.358;2023-03-22T06:59:21;99854.78;;;9.86;87.50
64967;BME280;51710;38.732;-121.358;2023-03-22T07:01:47;99859.09;;;9.87;86.87
64967;BME280;51710;38.732;-121.358;2023-03-22T07:04:14;99860.09;;;9.86;86.86
64967;BME280;51710;38.732;-121.358;2023-03-22T07:06:40;99866.91;;;9.88;86.70
64967;BME280;51710;38.732;-121.358;2023-03-22T07:09:06;99870.56;;;9.87;86.53
64967;BME280;51710;38.732;-121.358;2023-03-22T07:11:32;99881.84;;;9.89;86.76
64967;BME280;51710;38.732;-121.358;2023-03-22T07:13:59;99873.69;;;9.91;86.20
64967;BME280;51710;38.732;-121.358;2023-03-22T07:16:26;99877.38;;;9.90;86.34
64967;BME280;51710;38.732;-121.358;2023-03-22T07:18:52;99881.00;;;9.89;86.18
64967;BME280;51710;38.732;-121.358;2023-03-22T07:21:18;99887.00;;;9.91;86.35
64967;BME280;51710;38.732;-121.358;2023-03-22T07:23:45;99888.81;;;9.90;86.25
64967;BME280;51710;38.732;-121.358;2023-03-22T07:26:11;99890.31;;;9.93;86.39
64967;BME280;51710;38.732;-121.358;2023-03-22T07:28:38;99899.13;;;9.93;86.08
64967;BME280;51710;38.732;-121.358;2023-03-22T07:31:08;99895.63;;;9.93;85.86
64967;BME280;51710;38.732;-121.358;2023-03-22T07:33:37;99906.94;;;9.95;85.83
64967;BME280;51710;38.732;-121.358;2023-03-22T07:36:06;99907.59;;;9.97;85.74
64967;BME280;51710;38.732;-121.358;2023-03-22T07:38:33;99922.53;;;9.98;85.62
64967;BME280;51710;38.732;-121.358;2023-03-22T07:41:00;99918.03;;;9.98;85.68
64967;BME280;51710;38.732;-121.358;2023-03-22T07:43:26;99920.53;;;10.00;85.24
64967;BME280;51710;38.732;-121.358;2023-03-22T07:45:52;99924.16;;;9.99;85.11
64967;BME280;51710;38.732;-121.358;2023-03-22T07:48:20;99930.16;;;10.01;85.16
64967;BME280;51710;38.732;-121.358;2023-03-22T07:50:47;99931.16;;;10.00;85.18
64967;BME280;51710;38.732;-121.358;2023-03-22T07:53:13;99928.50;;;10.00;85.25
64967;BME280;51710;38.732;-121.358;2023-03-22T07:55:40;99933.00;;;9.99;85.31
64967;BME280;51710;38.732;-121.358;2023-03-22T07:58:09;99928.34;;;10.01;85.17
64967;BME280;51710;38.732;-121.358;2023-03-22T08:00:35;99935.47;;;10.01;84.96
64967;BME280;51710;38.732;-121.358;2023-03-22T08:03:01;99929.16;;;10.02;85.33
64967;BME280;51710;38.732;-121.358;2023-03-22T08:05:28;99937.81;;;10.04;85.10
64967;BME280;51710;38.732;-121.358;2023-03-22T08:07:55;99937.16;;;10.02;84.67
64967;BME280;51710;38.732;-121.358;2023-03-22T08:10:21;99944.47;;;10.00;85.15
64967;BME280;51710;38.732;-121.358;2023-03-22T08:12:48;99942.16;;;9.97;85.87
64967;BME280;51710;38.732;-121.358;2023-03-22T08:15:14;99948.63;;;9.94;85.61
64967;BME280;51710;38.732;-121.358;2023-03-22T08:17:40;99955.47;;;9.97;85.63
64967;BME280;51710;38.732;-121.358;2023-03-22T08:20:07;99963.44;;;9.97;85.53
64967;BME280;51710;38.732;-121.358;2023-03-22T08:22:37;99967.75;;;9.98;86.39
64967;BME280;51710;38.732;-121.358;2023-03-22T08:25:03;99965.09;;;9.98;85.90
64967;BME280;51710;38.732;-121.358;2023-03-22T08:27:30;99967.56;;;9.99;85.90
64967;BME280;51710;38.732;-121.358;2023-03-22T08:29:56;99973.72;;;10.00;86.16
64967;BME280;51710;38.732;-121.358;2023-03-22T08:32:23;99979.03;;;10.00;86.52
64967;BME280;51710;38.732;-121.358;2023-03-22T08:34:49;99988.66;;;10.01;86.79
64967;BME280;51710;38.732;-121.358;2023-03-22T08:37:17;99988.66;;;10.01;86.17
64967;BME280;51710;38.732;-121.358;2023-03-22T08:39:45;99992.16;;;10.01;86.37
64967;BME280;51710;38.732;-121.358;2023-03-22T08:42:11;99996.66;;;10.01;86.45
64967;BME280;51710;38.732;-121.358;2023-03-22T08:44:37;100001.97;;;10.01;86.46
64967;BME280;51710;38.732;-121.358;2023-03-22T08:47:04;100003.66;;;10.02;86.79
64967;BME280;51710;38.732;-121.358;2023-03-22T08:49:30;100013.25;;;10.03;86.86
64967;BME280;51710;38.732;-121.358;2023-03-22T08:51:56;100017.75;;;10.02;86.66
64967;BME280;51710;38.732;-121.358;2023-03-22T08:54:23;100007.94;;;10.03;86.99
64967;BME280;51710;38.732;-121.358;2023-03-22T08:56:49;100020.09;;;10.05;87.08
64967;BME280;51710;38.732;-121.358;2023-03-22T08:59:15;100031.53;;;10.06;87.41
64967;BME280;51710;38.732;-121.358;2023-03-22T09:01:42;100029.53;;;10.08;87.67
64967;BME280;51710;38.732;-121.358;2023-03-22T09:04:08;100036.72;;;10.07;87.58
64967;BME280;51710;38.732;-121.358;2023-03-22T09:06:34;100033.91;;;10.09;87.63
64967;BME280;51710;38.732;-121.358;2023-03-22T09:09:02;100041.88;;;10.09;87.33
64967;BME280;51710;38.732;-121.358;2023-03-22T09:11:28;100045.34;;;10.09;87.73
64967;BME280;51710;38.732;-121.358;2023-03-22T09:13:54;100040.69;;;10.11;88.23
64967;BME280;51710;38.732;-121.358;2023-03-22T09:16:21;100045.22;;;10.11;87.89
64967;BME280;51710;38.732;-121.358;2023-03-22T09:18:47;100050.53;;;10.11;88.11
64967;BME280;51710;38.732;-121.358;2023-03-22T09:21:13;100049.53;;;10.12;88.10
64967;BME280;51710;38.732;-121.358;2023-03-22T09:23:39;100057.50;;;10.12;88.43
64967;BME280;51710;38.732;-121.358;2023-03-22T09:26:07;100062.81;;;10.12;88.14
64967;BME280;51710;38.732;-121.358;2023-03-22T09:28:34;100071.13;;;10.17;88.07
64967;BME280;51710;38.732;-121.358;2023-03-22T09:31:03;100074.44;;;10.19;88.00
64967;BME280;51710;38.732;-121.358;2023-03-22T09:33:29;100078.75;;;10.20;88.35
64967;BME280;51710;38.732;-121.358;2023-03-22T09:35:56;100081.41;;;10.20;88.30
64967;BME280;51710;38.732;-121.358;2023-03-22T09:38:23;100089.56;;;10.18;88.40
64967;BME280;51710;38.732;-121.358;2023-03-22T09:40:55;100082.59;;;10.17;88.54
64967;BME280;51710;38.732;-121.358;2023-03-22T09:43:42;100080.13;;;10.16;88.32
64967;BME280;51710;38.732;-121.358;2023-03-22T09:46:18;100088.09;;;10.16;88.52
64967;BME280;51710;38.732;-121.358;2023-03-22T09:48:48;100096.06;;;10.16;88.66
64967;BME280;51710;38.732;-121.358;2023-03-22T09:51:37;100101.22;;;10.17;89.20
64967;BME280;51710;38.732;-121.358;2023-03-22T09:54:11;100101.22;;;10.17;88.82
64967;BME280;51710;38.732;-121.358;2023-03-22T09:56:38;100109.53;;;10.23;88.68
64967;BME280;51710;38.732;-121.358;2023-03-22T10:05:13;100122.16;;;10.20;88.47
64967;BME280;51710;38.732;-121.358;2023-03-22T10:10:29;100121.97;;;10.22;88.81
64967;BME280;51710;38.732;-121.358;2023-03-22T10:13:13;100136.31;;;10.21;88.97
64967;BME280;51710;38.732;-121.358;2023-03-22T10:15:46;100130.97;;;10.21;89.23
64967;BME280;51710;38.732;-121.358;2023-03-22T10:18:18;100137.94;;;10.22;88.87
64967;BME280;51710;38.732;-121.358;2023-03-22T10:20:47;100134.31;;;10.23;89.26
64967;BME280;51710;38.732;-121.358;2023-03-22T10:23:19;100142.13;;;10.25;89.41
64967;BME280;51710;38.732;-121.358;2023-03-22T10:25:46;100143.94;;;10.24;89.61
64967;BME280;51710;38.732;-121.358;2023-03-22T10:28:20;100147.25;;;10.26;88.99
64967;BME280;51710;38.732;-121.358;2023-03-22T10:30:52;100146.25;;;10.27;89.47
64967;BME280;51710;38.732;-121.358;2023-03-22T10:36:11;100152.41;;;10.28;89.37
64967;BME280;51710;38.732;-121.358;2023-03-22T10:38:55;100161.41;;;10.27;89.59
64967;BME280;51710;38.732;-121.358;2023-03-22T10:41:23;100150.25;;;10.31;89.18
64967;BME280;51710;38.732;-121.358;2023-03-22T10:43:56;100159.56;;;10.27;89.06
64967;BME280;51710;38.732;-121.358;2023-03-22T10:46:26;100158.91;;;10.25;89.20
64967;BME280;51710;38.732;-121.358;2023-03-22T10:48:57;100159.06;;;10.23;89.88
64967;BME280;51710;38.732;-121.358;2023-03-22T10:51:34;100166.06;;;10.25;89.42
64967;BME280;51710;38.732;-121.358;2023-03-22T10:54:04;100166.72;;;10.27;89.52
64967;BME280;51710;38.732;-121.358;2023-03-22T10:56:31;100168.38;;;10.28;89.57
64967;BME280;51710;38.732;-121.358;2023-03-22T10:58:57;100174.72;;;10.27;89.29
64967;BME280;51710;38.732;-121.358;2023-03-22T11:01:29;100175.69;;;10.26;89.21
64967;BME280;51710;38.732;-121.358;2023-03-22T11:06:30;100196.19;;;10.25;89.31
64967;BME280;51710;38.732;-121.358;2023-03-22T11:09:14;100189.16;;;10.24;89.66
64967;BME280;51710;38.732;-121.358;2023-03-22T11:14:41;100197.31;;;10.23;89.23
64967;BME280;51710;38.732;-121.358;2023-03-22T11:19:35;100197.16;;;10.24;89.57
64967;BME280;51710;38.732;-121.358;2023-03-22T11:22:07;100198.97;;;10.23;89.29
64967;BME280;51710;38.732;-121.358;2023-03-22T11:24:41;100193.66;;;10.23;89.27
64967;BME280;51710;38.732;-121.358;2023-03-22T11:29:46;100209.63;;;10.23;89.07
64967;BME280;51710;38.732;-121.358;2023-03-22T11:32:25;100209.63;;;10.23;88.71
64967;BME280;51710;38.732;-121.358;2023-03-22T11:35:20;100219.75;;;10.20;88.94
64967;BME280;51710;38.732;-121.358;2023-03-22T11:37:50;100215.81;;;10.16;88.87
64967;BME280;51710;38.732;-121.358;2023-03-22T11:40:26;100215.97;;;10.14;89.26
64967;BME280;51710;38.732;-121.358;2023-03-22T11:43:16;100220.44;;;10.14;88.93
64967;BME280;51710;38.732;-121.358;2023-03-22T11:45:44;100226.44;;;10.16;89.52
64967;BME280;51710;38.732;-121.358;2023-03-22T11:48:22;100227.41;;;10.15;89.21
64967;BME280;51710;38.732;-121.358;2023-03-22T11:50:53;100230.25;;;10.13;89.11
64967;BME280;51710;38.732;-121.358;2023-03-22T11:53:24;100235.75;;;10.12;89.02
64967;BME280;51710;38.732;-121.358;2023-03-22T11:55:54;100238.41;;;10.12;88.92
64967;BME280;51710;38.732;-121.358;2023-03-22T11:58:28;100240.41;;;10.10;89.20
64967;BME280;51710;38.732;-121.358;2023-03-22T12:01:01;100245.72;;;10.10;89.20
64967;BME280;51710;38.732;-121.358;2023-03-22T12:03:39;100245.88;;;10.08;89.33
64967;BME280;51710;38.732;-121.358;2023-03-22T12:06:18;100247.16;;;10.04;89.21
64967;BME280;51710;38.732;-121.358;2023-03-22T12:08:50;100250.00;;;10.03;89.26
64967;BME280;51710;38.732;-121.358;2023-03-22T12:11:44;100250.34;;;10.00;88.91
64967;BME280;51710;38.732;-121.358;2023-03-22T12:17:07;100257.97;;;10.03;89.20
64967;BME280;51710;38.732;-121.358;2023-03-22T12:22:44;100269.94;;;9.99;89.03
64967;BME280;51710;38.732;-121.358;2023-03-22T12:25:20;100273.59;;;9.98;89.53
64967;BME280;51710;38.732;-121.358;2023-03-22T12:27:54;100276.94;;;10.00;89.71
64967;BME280;51710;38.732;-121.358;2023-03-22T12:30:27;100284.91;;;10.00;89.47
64967;BME280;51710;38.732;-121.358;2023-03-22T12:35:28;100292.91;;;10.00;89.19
64967;BME280;51710;38.732;-121.358;2023-03-22T12:37:57;100301.84;;;9.99;89.29
64967;BME280;51710;38.732;-121.358;2023-03-22T12:40:31;100301.84;;;9.99;89.33
64967;BME280;51710;38.732;-121.358;2023-03-22T12:43:14;100302.88;;;9.98;89.66
64967;BME280;51710;38.732;-121.358;2023-03-22T12:45:45;100314.69;;;9.95;89.69
64967;BME280;51710;38.732;-121.358;2023-03-22T12:48:22;100318.16;;;9.96;89.39
64967;BME280;51710;38.732;-121.358;2023-03-22T12:50:59;100314.69;;;9.95;89.42
64967;BME280;51710;38.732;-121.358;2023-03-22T12:53:44;100323.47;;;9.96;89.36
64967;BME280;51710;38.732;-121.358;2023-03-22T12:56:14;100327.97;;;9.95;89.18
64967;BME280;51710;38.732;-121.358;2023-03-22T12:58:46;100328.78;;;9.96;88.94
64967;BME280;51710;38.732;-121.358;2023-03-22T13:02:08;100340.28;;;9.96;89.31
64967;BME280;51710;38.732;-121.358;2023-03-22T13:09:48;100354.56;;;9.95;89.32
64967;BME280;51710;38.732;-121.358;2023-03-22T13:19:52;100380.97;;;9.89;89.66
64967;BME280;51710;38.732;-121.358;2023-03-22T13:33:31;100403.19;;;9.80;89.83
64967;BME280;51710;38.732;-121.358;2023-03-22T13:36:20;100411.66;;;9.75;90.11
64967;BME280;51710;38.732;-121.358;2023-03-22T13:38:58;100408.84;;;9.77;90.40
64967;BME280;51710;38.732;-121.358;2023-03-22T13:41:32;100417.50;;;9.79;90.71
64967;BME280;51710;38.732;-121.358;2023-03-22T13:44:02;100424.97;;;9.83;90.29
64967;BME280;51710;38.732;-121.358;2023-03-22T13:46:48;100432.50;;;9.88;90.32
64967;BME280;51710;38.732;-121.358;2023-03-22T13:49:40;100433.84;;;9.92;90.01
64967;BME280;51710;38.732;-121.358;2023-03-22T13:52:18;100440.81;;;9.93;89.72
64967;BME280;51710;38.732;-121.358;2023-03-22T13:54:48;100442.34;;;9.95;89.98
64967;BME280;51710;38.732;-121.358;2023-03-22T14:00:34;100453.97;;;10.02;89.85
64967;BME280;51710;38.732;-121.358;2023-03-22T14:05:38;100462.22;;;10.09;89.82
64967;BME280;51710;38.732;-121.358;2023-03-22T14:08:05;100463.88;;;10.10;89.51
64967;BME280;51710;38.732;-121.358;2023-03-22T14:10:42;100470.88;;;10.11;89.66
64967;BME280;51710;38.732;-121.358;2023-03-22T14:15:56;100480.53;;;10.20;89.51
64967;BME280;51710;38.732;-121.358;2023-03-22T14:18:30;100488.88;;;10.25;89.74
64967;BME280;51710;38.732;-121.358;2023-03-22T14:21:10;100490.22;;;10.29;89.29
64967;BME280;51710;38.732;-121.358;2023-03-22T14:23:48;100503.88;;;10.34;89.56
64967;BME280;51710;38.732;-121.358;2023-03-22T14:26:20;100506.06;;;10.39;88.74
64967;BME280;51710;38.732;-121.358;2023-03-22T14:28:47;100513.72;;;10.42;88.78
64967;BME280;51710;38.732;-121.358;2023-03-22T14:31:26;100514.56;;;10.42;88.76